WAT579 LPCR-LPSJ

Flight info

Callsign WAT579
Flight time 0h 29m
Altitude 19000
Route ELBEN
Aircraft A319/M-SDE3FGHIRWY/LB1

Departure

Time 2026-04-23 17:43
Airport Corvo Airport (LPCR)

Arrival

Time 2026-04-23 18:12
Airport São Jorge Airport (LPSJ)
Time Latitude Longitude Altitude Speed Heading
2026-04-23 17:23 39.67079 -31.11315 53 ft 0 kts 158°
2026-04-23 17:25 39.67079 -31.11316 53 ft 0 kts 158°
2026-04-23 17:39 39.67086 -31.11319 54 ft 4 kts 162°
2026-04-23 17:39 39.67103 -31.11314 50 ft 2 kts 240°
2026-04-23 17:39 39.67113 -31.11285 54 ft 4 kts 253°
2026-04-23 17:40 39.67117 -31.11251 52 ft 4 kts 274°
2026-04-23 17:40 39.67112 -31.11217 57 ft 4 kts 284°
2026-04-23 17:40 39.67110 -31.11201 60 ft 1 kts 276°
2026-04-23 17:42 39.67129 -31.11426 49 ft 78 kts 277°
2026-04-23 17:42 39.67214 -31.12531 245 ft 151 kts 275°
2026-04-23 17:43 39.67063 -31.14017 1033 ft 182 kts 246°
2026-04-23 17:43 39.66023 -31.15160 1938 ft 224 kts 202°
2026-04-23 17:43 39.64344 -31.15175 2838 ft 265 kts 168°
2026-04-23 17:43 39.62625 -31.13954 3660 ft 302 kts 141°
2026-04-23 17:44 39.61156 -31.11801 4342 ft 336 kts 124°
2026-04-23 17:44 39.59958 -31.09061 5118 ft 357 kts 112°
2026-04-23 17:44 39.58981 -31.02750 7678 ft 364 kts 90°
2026-04-23 17:45 39.58947 -30.99470 9051 ft 364 kts 88°
2026-04-23 17:45 39.58716 -30.92840 11346 ft 377 kts 99°
2026-04-23 17:45 39.58130 -30.89503 12506 ft 384 kts 107°
2026-04-23 17:46 39.56223 -30.82907 14541 ft 397 kts 114°
2026-04-23 17:46 39.55110 -30.79609 15529 ft 402 kts 115°
2026-04-23 17:46 39.53962 -30.76271 16480 ft 409 kts 115°
2026-04-23 17:47 39.52794 -30.72878 17417 ft 415 kts 115°
2026-04-23 17:47 39.51615 -30.69437 18266 ft 422 kts 115°
2026-04-23 17:47 39.49220 -30.62428 18792 ft 428 kts 115°
2026-04-23 17:48 39.48016 -30.58905 18819 ft 428 kts 115°
2026-04-23 17:48 39.46812 -30.55386 18824 ft 428 kts 115°
2026-04-23 17:48 39.45605 -30.51863 18824 ft 428 kts 115°
2026-04-23 17:48 39.44396 -30.48341 18825 ft 428 kts 115°
2026-04-23 17:49 39.43187 -30.44822 18823 ft 428 kts 115°
2026-04-23 17:49 39.41977 -30.41304 18826 ft 428 kts 115°
2026-04-23 17:49 39.40766 -30.37790 18828 ft 428 kts 115°
2026-04-23 17:49 39.39555 -30.34279 18828 ft 428 kts 115°
2026-04-23 17:50 39.38342 -30.30765 18821 ft 428 kts 115°
2026-04-23 17:50 39.35913 -30.23745 18829 ft 428 kts 115°
2026-04-23 17:50 39.34698 -30.20240 18827 ft 427 kts 115°
2026-04-23 17:51 39.33483 -30.16737 18823 ft 428 kts 115°
2026-04-23 17:51 39.32264 -30.13229 18823 ft 427 kts 115°
2026-04-23 17:51 39.29827 -30.06228 18825 ft 427 kts 115°
2026-04-23 17:52 39.28608 -30.02733 18822 ft 427 kts 115°
2026-04-23 17:52 39.26181 -29.95784 18827 ft 427 kts 115°
2026-04-23 17:52 39.24956 -29.92286 18827 ft 427 kts 115°
2026-04-23 17:53 39.22507 -29.85302 18830 ft 427 kts 115°
2026-04-23 17:53 39.21281 -29.81809 18830 ft 428 kts 115°
2026-04-23 17:53 39.20052 -29.78316 18831 ft 427 kts 115°
2026-04-23 17:54 39.18824 -29.74827 18828 ft 427 kts 115°
2026-04-23 17:54 39.17594 -29.71337 18833 ft 428 kts 115°
2026-04-23 17:54 39.15146 -29.64405 18464 ft 422 kts 116°
2026-04-23 17:55 39.12728 -29.57573 17983 ft 417 kts 116°
2026-04-23 17:55 39.11524 -29.54177 17720 ft 416 kts 116°
2026-04-23 17:55 39.10323 -29.50797 17448 ft 414 kts 116°
2026-04-23 17:56 39.09128 -29.47435 17181 ft 413 kts 116°
2026-04-23 17:56 39.06744 -29.40738 16662 ft 409 kts 116°
2026-04-23 17:56 39.05558 -29.37413 16321 ft 409 kts 116°
2026-04-23 17:57 39.04367 -29.34076 15723 ft 410 kts 116°
2026-04-23 17:57 39.03581 -29.31877 15325 ft 408 kts 115°
2026-04-23 17:57 39.01232 -29.25314 14158 ft 400 kts 115°
2026-04-23 17:58 39.00074 -29.22082 13596 ft 396 kts 115°
2026-04-23 17:58 38.98936 -29.18909 13218 ft 387 kts 116°
2026-04-23 17:58 38.97434 -29.14729 12551 ft 390 kts 116°
2026-04-23 17:58 38.96667 -29.12598 12170 ft 388 kts 116°
2026-04-23 17:59 38.95537 -29.09461 11605 ft 384 kts 116°
2026-04-23 17:59 38.94422 -29.06366 11047 ft 380 kts 116°
2026-04-23 17:59 38.93318 -29.03305 10498 ft 375 kts 116°
2026-04-23 17:59 38.92230 -29.00292 10105 ft 367 kts 116°
2026-04-23 18:00 38.91179 -28.97383 9949 ft 351 kts 116°
2026-04-23 18:00 38.90186 -28.94638 9804 ft 336 kts 116°
2026-04-23 18:00 38.89207 -28.91935 9605 ft 325 kts 116°
2026-04-23 18:00 38.88259 -28.89318 9202 ft 321 kts 116°
2026-04-23 18:01 38.87323 -28.86738 8806 ft 316 kts 116°
2026-04-23 18:01 38.86401 -28.84199 8431 ft 312 kts 116°
2026-04-23 18:01 38.85490 -28.81691 8053 ft 308 kts 116°
2026-04-23 18:01 38.84589 -28.79213 7680 ft 305 kts 116°
2026-04-23 18:02 38.83699 -28.76766 7305 ft 301 kts 116°
2026-04-23 18:02 38.82819 -28.74349 6942 ft 297 kts 117°
2026-04-23 18:02 38.81948 -28.71960 6573 ft 294 kts 117°
2026-04-23 18:02 38.81086 -28.69597 6216 ft 291 kts 117°
2026-04-23 18:03 38.80243 -28.67287 5851 ft 288 kts 117°
2026-04-23 18:03 38.79399 -28.64976 5505 ft 285 kts 117°
2026-04-23 18:03 38.78561 -28.62691 5146 ft 282 kts 117°
2026-04-23 18:03 38.77733 -28.60431 4805 ft 279 kts 117°
2026-04-23 18:04 38.76911 -28.58189 4430 ft 277 kts 117°
2026-04-23 18:04 38.76084 -28.55940 4246 ft 290 kts 117°
2026-04-23 18:04 38.75202 -28.53545 4121 ft 300 kts 117°
2026-04-23 18:04 38.74326 -28.51153 4056 ft 292 kts 117°
2026-04-23 18:05 38.73470 -28.48819 3756 ft 289 kts 117°
2026-04-23 18:05 38.72615 -28.46496 3323 ft 288 kts 117°
2026-04-23 18:05 38.71761 -28.44177 2900 ft 287 kts 117°
2026-04-23 18:05 38.70908 -28.41862 2440 ft 288 kts 117°
2026-04-23 18:06 38.70056 -28.39547 2079 ft 284 kts 117°
2026-04-23 18:06 38.69233 -28.37311 1939 ft 272 kts 117°
2026-04-23 18:06 38.68444 -28.35165 1835 ft 260 kts 118°
2026-04-23 18:06 38.67686 -28.33112 1756 ft 250 kts 118°
2026-04-23 18:07 38.66957 -28.31144 1683 ft 240 kts 118°
2026-04-23 18:07 38.66259 -28.29253 1582 ft 230 kts 118°
2026-04-23 18:07 38.65588 -28.27438 1511 ft 221 kts 118°
2026-04-23 18:07 38.64947 -28.25709 1510 ft 208 kts 118°
2026-04-23 18:08 38.64349 -28.24096 1514 ft 196 kts 118°
2026-04-23 18:08 38.63758 -28.22520 1512 ft 199 kts 118°
2026-04-23 18:08 38.63161 -28.20915 1513 ft 201 kts 118°
2026-04-23 18:08 38.62561 -28.19294 1512 ft 201 kts 118°
2026-04-23 18:09 38.61966 -28.17698 1521 ft 197 kts 120°
2026-04-23 18:09 38.61344 -28.16136 1516 ft 198 kts 120°
2026-04-23 18:09 38.60837 -28.14541 1553 ft 186 kts 100°
2026-04-23 18:09 38.61064 -28.13039 1464 ft 162 kts 46°
2026-04-23 18:10 38.61756 -28.12405 1389 ft 137 kts
2026-04-23 18:10 38.62671 -28.12323 1345 ft 128 kts 344°
2026-04-23 18:10 38.63511 -28.12586 1229 ft 122 kts 330°
2026-04-23 18:10 38.64256 -28.13014 1027 ft 113 kts 317°
2026-04-23 18:11 38.64843 -28.13684 925 ft 113 kts 303°
2026-04-23 18:11 38.65281 -28.14500 772 ft 111 kts 295°
2026-04-23 18:11 38.65674 -28.15348 659 ft 112 kts 293°
2026-04-23 18:11 38.66030 -28.16218 472 ft 108 kts 291°
2026-04-23 18:12 38.66371 -28.17082 336 ft 106 kts 292°
2026-04-23 18:12 38.66635 -28.17745 334 ft 49 kts 298°
2026-04-23 18:12 38.66762 -28.18068 349 ft 26 kts 298°
2026-04-23 18:12 38.66810 -28.18221 347 ft 13 kts 287°
2026-04-23 18:13 38.66832 -28.18220 350 ft 9 kts 84°
2026-04-23 18:13 38.66764 -28.18078 348 ft 25 kts 115°
2026-04-23 18:13 38.66673 -28.17848 336 ft 33 kts 117°
2026-04-23 18:13 38.66555 -28.17561 331 ft 39 kts 114°
2026-04-23 18:14 38.66435 -28.17256 329 ft 37 kts 121°
2026-04-23 18:14 38.66346 -28.17038 328 ft 11 kts 116°
2026-04-23 18:14 38.66375 -28.16944 328 ft 10 kts 36°
2026-04-23 18:14 38.66420 -28.16979 330 ft 8 kts 316°
2026-04-23 18:15 38.66456 -28.16978 330 ft 3 kts 33°
2026-04-23 18:15 38.66471 -28.16974 329 ft 2 kts
2026-04-23 18:15 38.66482 -28.16973 329 ft 0 kts 349°
2026-04-23 18:17 38.66415 -28.16842 329 ft 0 kts